createdAt,value
2022-10-22T00:00:36.310Z,99655.63
2022-10-22T00:05:40.398Z,99642.25
2022-10-22T00:10:43.286Z,99638.69
2022-10-22T00:15:45.888Z,99645.34
2022-10-22T00:20:49.877Z,99644.78
2022-10-22T00:25:54.095Z,99650.31
2022-10-22T00:30:57.778Z,99638.91
2022-10-22T00:36:01.734Z,99650.88
2022-10-22T00:41:04.434Z,99662.09
2022-10-22T00:46:07.049Z,99672.31
2022-10-22T00:51:11.184Z,99687.22
2022-10-22T00:56:14.132Z,99665.31
2022-10-22T01:01:22.859Z,99671.00
2022-10-22T01:06:30.044Z,99670.56
2022-10-22T01:11:40.614Z,99663.84
2022-10-22T01:16:50.951Z,99663.09
2022-10-22T01:21:59.614Z,99667.91
2022-10-22T01:27:13.337Z,99658.50
2022-10-22T01:32:20.260Z,99655.06
2022-10-22T01:37:26.865Z,99661.75
2022-10-22T01:42:29.903Z,99662.00
2022-10-22T01:47:44.001Z,99663.25
2022-10-22T01:53:12.044Z,99661.81
2022-10-22T01:58:23.683Z,99656.69
2022-10-22T02:03:32.171Z,99657.94
2022-10-22T02:08:36.736Z,99651.81
2022-10-22T02:13:44.016Z,99653.06
2022-10-22T02:18:52.426Z,99647.09
2022-10-22T02:23:55.099Z,99643.78
2022-10-22T02:29:04.719Z,99641.38
2022-10-22T02:34:14.060Z,99631.81
2022-10-22T02:39:18.480Z,99634.78
2022-10-22T02:44:22.943Z,99629.75
2022-10-22T02:49:27.068Z,99630.03
2022-10-22T02:54:29.727Z,99623.06
2022-10-22T02:59:32.373Z,99621.50
2022-10-22T03:04:36.407Z,99630.81
2022-10-22T03:09:39.081Z,99633.78
2022-10-22T03:14:41.692Z,99633.03
2022-10-22T03:19:45.805Z,99639.69
2022-10-22T03:24:51.699Z,99648.88
2022-10-22T03:29:54.378Z,99662.66
2022-10-22T03:40:08.707Z,99662.28
2022-10-22T03:45:12.546Z,99657.16
2022-10-22T03:50:17.162Z,99661.84
2022-10-22T03:55:20.131Z,99673.72
2022-10-22T04:00:22.740Z,99674.84
2022-10-22T04:05:26.852Z,99677.78
2022-10-22T04:10:29.483Z,99679.78
2022-10-22T04:15:33.082Z,99680.88
2022-10-22T04:20:37.194Z,99671.22
2022-10-22T04:25:39.874Z,99675.00
2022-10-22T04:30:42.550Z,99679.69
2022-10-22T04:35:46.632Z,99680.81
2022-10-22T04:40:49.236Z,99689.00
2022-10-22T04:45:51.929Z,99695.50
2022-10-22T04:50:58.827Z,99697.44
2022-10-22T04:56:08.952Z,99702.13
2022-10-22T05:01:13.996Z,99688.78
2022-10-22T05:06:18.172Z,99683.53
2022-10-22T05:11:22.742Z,99678.22
2022-10-22T05:16:26.395Z,99686.47
2022-10-22T05:21:30.759Z,99698.38
2022-10-22T05:26:33.435Z,99706.56
2022-10-22T05:31:36.497Z,99705.69
2022-10-22T05:36:40.543Z,99704.00
2022-10-22T05:41:43.268Z,99715.63
2022-10-22T05:46:46.394Z,99716.63
2022-10-22T05:51:50.547Z,99708.66
2022-10-22T05:56:54.298Z,99713.31
2022-10-22T06:01:57.003Z,99720.66
2022-10-22T06:07:01.244Z,99732.44
2022-10-22T06:12:04.528Z,99740.50
2022-10-22T06:17:07.151Z,99750.53
2022-10-22T06:22:11.183Z,99762.28
2022-10-22T06:27:13.857Z,99781.28
2022-10-22T06:32:16.597Z,99791.31
2022-10-22T06:37:20.571Z,99802.22
2022-10-22T06:42:23.283Z,99798.78
2022-10-22T06:47:25.943Z,99812.25
2022-10-22T06:52:29.961Z,99813.25
2022-10-22T06:57:32.589Z,99817.78
2022-10-22T07:02:35.179Z,99820.56
2022-10-22T07:07:39.088Z,99825.00
2022-10-22T07:12:41.918Z,99832.22
2022-10-22T07:17:44.627Z,99838.34
2022-10-22T07:22:48.657Z,99844.59
2022-10-22T07:27:52.345Z,99853.31
2022-10-22T07:32:55.012Z,99869.72
2022-10-22T07:37:59.048Z,99866.16
2022-10-22T07:43:01.895Z,99879.56
2022-10-22T07:48:04.857Z,99884.47
2022-10-22T07:53:08.885Z,99892.16
2022-10-22T07:58:11.537Z,99893.50
2022-10-22T08:03:16.441Z,99900.22
2022-10-22T08:08:21.155Z,99891.91
2022-10-22T08:13:24.453Z,99894.88
2022-10-22T08:18:27.670Z,99905.28
2022-10-22T08:23:31.684Z,99907.63
2022-10-22T08:28:36.981Z,99913.78
2022-10-22T08:33:39.917Z,99904.72
2022-10-22T08:38:43.924Z,99914.41
2022-10-22T08:44:02.955Z,99904.38
2022-10-22T08:49:10.395Z,99915.03
2022-10-22T08:54:29.865Z,99922.13
2022-10-22T08:59:45.416Z,99919.44
2022-10-22T09:04:57.961Z,99932.78
2022-10-22T09:10:04.380Z,99943.56
2022-10-22T09:15:07.676Z,99941.72
2022-10-22T09:20:17.154Z,99939.78
2022-10-22T09:25:23.959Z,99945.06
2022-10-22T09:30:29.831Z,99949.31
2022-10-22T09:35:35.098Z,99949.25
2022-10-22T09:40:46.844Z,99964.41
2022-10-22T09:45:56.037Z,99954.38
2022-10-22T09:51:05.492Z,99954.38
2022-10-22T09:56:16.326Z,99947.91
2022-10-22T10:01:21.164Z,99958.56
2022-10-22T10:06:24.676Z,99958.44
2022-10-22T10:11:34.843Z,99954.75
2022-10-22T10:16:50.327Z,99959.94
2022-10-22T10:22:05.503Z,99967.88
2022-10-22T10:27:16.198Z,99957.75
2022-10-22T10:32:31.565Z,99960.94
2022-10-22T10:37:40.446Z,99956.53
2022-10-22T10:42:48.861Z,99951.75
2022-10-22T10:48:13.372Z,99959.16
2022-10-22T10:53:26.586Z,99961.19
2022-10-22T10:58:39.854Z,99970.38
2022-10-22T11:03:58.388Z,99964.34
2022-10-22T11:09:06.568Z,99972.22
2022-10-22T11:14:18.544Z,99966.69
2022-10-22T11:19:46.501Z,99973.91
2022-10-22T11:24:57.064Z,99985.25
2022-10-22T11:30:04.865Z,99977.38
2022-10-22T11:35:14.149Z,99971.97
2022-10-22T11:40:20.431Z,99976.75
2022-10-22T11:45:32.859Z,99980.69
2022-10-22T11:50:57.418Z,99973.94
2022-10-22T11:56:22.170Z,99977.88
2022-10-22T12:01:29.311Z,99978.28
2022-10-22T12:06:56.155Z,99974.34
2022-10-22T12:12:11.072Z,99973.25
2022-10-22T12:17:16.299Z,99983.56
2022-10-22T12:22:23.019Z,99982.09
2022-10-22T12:27:27.847Z,99978.78
2022-10-22T12:32:35.234Z,99980.50
2022-10-22T12:37:38.841Z,99987.47
2022-10-22T12:42:48.856Z,99982.38
2022-10-22T12:47:57.740Z,99976.47
2022-10-22T12:53:01.152Z,99977.94
2022-10-22T12:58:06.887Z,99977.47
2022-10-22T13:03:26.563Z,99981.25
2022-10-22T13:08:30.005Z,99972.91
2022-10-22T13:13:35.543Z,99976.19
2022-10-22T13:18:39.689Z,99975.44
2022-10-22T13:23:54.003Z,99971.97
2022-10-22T13:28:58.118Z,99972.84
2022-10-22T13:34:09.810Z,99981.53
2022-10-22T13:39:18.926Z,99984.59
2022-10-22T13:44:21.679Z,99987.69
2022-10-22T13:49:25.781Z,99979.34
2022-10-22T13:54:28.743Z,99977.75
2022-10-22T13:59:32.238Z,99983.53
2022-10-22T14:04:40.108Z,99978.28
2022-10-22T14:09:43.027Z,99983.06
2022-10-22T14:14:45.673Z,99991.28
2022-10-22T14:19:50.929Z,99993.00
2022-10-22T14:24:54.288Z,99988.59
2022-10-22T14:29:59.493Z,99997.03
2022-10-22T14:35:04.021Z,99999.47
2022-10-22T14:40:08.997Z,99998.00
2022-10-22T14:45:16.943Z,100004.75
2022-10-22T14:50:21.455Z,100010.00
2022-10-22T14:55:26.121Z,100015.22
2022-10-22T15:00:29.176Z,100021.34
2022-10-22T15:05:33.237Z,100029.16
2022-10-22T15:10:35.906Z,100029.78
2022-10-22T15:15:41.352Z,100034.19
2022-10-22T15:20:45.662Z,100040.56
2022-10-22T15:25:48.349Z,100047.69
2022-10-22T15:30:55.408Z,100044.72
2022-10-22T15:36:00.183Z,100057.00
2022-10-22T15:41:05.452Z,100064.84
2022-10-22T15:46:14.391Z,100070.97
2022-10-22T15:51:20.773Z,100068.28
2022-10-22T15:56:23.862Z,100070.13
2022-10-22T16:01:28.102Z,100074.94
2022-10-22T16:06:34.467Z,100079.50
2022-10-22T16:11:37.950Z,100092.03
2022-10-22T16:16:44.492Z,100095.56
2022-10-22T16:21:50.107Z,100092.16
2022-10-22T16:26:53.226Z,100095.94
2022-10-22T16:31:56.105Z,100095.72
2022-10-22T16:37:00.068Z,100091.84
2022-10-22T16:42:02.777Z,100104.00
2022-10-22T16:47:05.485Z,100113.59
2022-10-22T16:52:09.600Z,100117.16
2022-10-22T16:57:13.678Z,100129.81
2022-10-22T17:02:16.433Z,100137.06
2022-10-22T17:07:20.401Z,100143.19
2022-10-22T17:12:23.018Z,100148.75
2022-10-22T17:17:25.796Z,100142.19
2022-10-22T17:22:29.934Z,100152.28
2022-10-22T17:27:32.602Z,100167.81
2022-10-22T17:32:37.404Z,100181.56
2022-10-22T17:37:41.698Z,100178.00
2022-10-22T17:42:45.377Z,100181.69
2022-10-22T17:47:48.027Z,100180.69
2022-10-22T17:52:52.035Z,100179.84
2022-10-22T17:57:54.662Z,100180.84
2022-10-22T18:02:57.304Z,100190.66
2022-10-22T18:08:05.600Z,100189.88
2022-10-22T18:13:10.545Z,100191.88
2022-10-22T18:18:14.451Z,100183.88
2022-10-22T18:23:18.992Z,100188.94
2022-10-22T18:28:21.912Z,100194.44
2022-10-22T18:33:25.160Z,100189.16
2022-10-22T18:38:29.180Z,100195.44
2022-10-22T18:43:31.841Z,100203.41
2022-10-22T18:48:35.413Z,100207.72
2022-10-22T18:53:39.418Z,100210.16
2022-10-22T18:58:43.951Z,100206.59
2022-10-22T19:03:47.386Z,100212.88
2022-10-22T19:08:51.648Z,100212.88
2022-10-22T19:13:54.543Z,100220.03
2022-10-22T19:19:01.696Z,100215.47
2022-10-22T19:24:06.460Z,100222.59
2022-10-22T19:29:10.862Z,100224.56
2022-10-22T19:34:14.847Z,100229.34
2022-10-22T19:39:19.457Z,100228.84
2022-10-22T19:44:22.112Z,100232.41
2022-10-22T19:49:24.723Z,100236.34
2022-10-22T19:54:28.716Z,100257.03
2022-10-22T19:59:32.286Z,100263.16
2022-10-22T20:04:37.071Z,100272.84
2022-10-22T20:09:42.440Z,100276.53
2022-10-22T20:14:45.083Z,100277.53
2022-10-22T20:19:47.859Z,100275.97
2022-10-22T20:24:52.073Z,100282.09
2022-10-22T20:29:54.681Z,100290.84
2022-10-22T20:34:57.350Z,100287.13
2022-10-22T20:40:01.311Z,100288.84
2022-10-22T20:45:04.035Z,100295.34
2022-10-22T20:50:07.482Z,100292.66
2022-10-22T20:55:11.508Z,100295.34
2022-10-22T21:00:15.215Z,100294.50
2022-10-22T21:05:17.884Z,100307.06
2022-10-22T21:10:21.819Z,100307.28
2022-10-22T21:15:24.482Z,100311.84
2022-10-22T21:20:27.183Z,100295.25
2022-10-22T21:25:31.225Z,100307.28
2022-10-22T21:30:33.828Z,100308.78
2022-10-22T21:35:36.475Z,100312.06
2022-10-22T21:40:40.480Z,100300.53
2022-10-22T21:45:43.600Z,100299.69
2022-10-22T21:50:46.274Z,100299.41
2022-10-22T21:55:50.311Z,100289.50
2022-10-22T22:00:56.546Z,100287.88
2022-10-22T22:05:59.865Z,100298.81
2022-10-22T22:11:05.913Z,100289.72
2022-10-22T22:16:11.150Z,100305.22
2022-10-22T22:21:15.643Z,100306.19
2022-10-22T22:26:26.701Z,100317.97
2022-10-22T22:31:33.580Z,100314.28
2022-10-22T22:36:38.689Z,100313.69
2022-10-22T22:41:43.763Z,100315.53
2022-10-22T22:46:46.348Z,100313.81
2022-10-22T22:51:50.295Z,100316.75
2022-10-22T22:56:54.288Z,100323.16
2022-10-22T23:01:56.978Z,100324.13
2022-10-22T23:06:59.704Z,100326.09
2022-10-22T23:12:03.782Z,100322.78
2022-10-22T23:17:07.089Z,100326.34
2022-10-22T23:22:09.881Z,100319.94
2022-10-22T23:27:13.843Z,100314.66
2022-10-22T23:32:16.499Z,100306.56
2022-10-22T23:37:19.127Z,100308.41
2022-10-22T23:42:23.088Z,100305.81
2022-10-22T23:47:25.787Z,100307.91
2022-10-22T23:52:28.438Z,100296.13
2022-10-22T23:57:32.424Z,100298.69
